Alyeska Resort Wx Sites
Hourly Roundup from Summit Site
ALYSUM 1/19/2018
Click Here to View Graph!

        DATE  TIME   Air  Wind  Wind  Wind   Rel  BATT Solar
                    Temp   Spd   Dir  Gust  Hum%  Volt Watts
                      F   AVG   AVG   MAX   AVG   AVG    M

   1/19/2018 16:00    21     0    82     2    94 13.38 18.33
   1/19/2018 15:00    21     1    66     3    91 13.96 59.69
   1/19/2018 14:00    24     1    20     4    83 14.78197.60
   1/19/2018 13:00    25     1    59     5    81 14.84205.50
   1/19/2018 12:00    23     5    97    11    84 14.40136.20
   1/19/2018 11:00    21     8    76    12    87 13.12 39.36
   1/19/2018 10:00    22     5   100    13    88 12.88  3.13
   1/19/2018 09:00    22     9    76    13    85 12.88  0.05
   1/19/2018 08:00    22     8    84    12    83 12.89  0.01
   1/19/2018 07:00    22     6    82    13    83 12.90  0.00
   1/19/2018 06:00    22    10    80    15    85 12.91  0.00
   1/19/2018 05:00    21     9    72    13    87 12.92  0.00
   1/19/2018 04:00    21     8    76    13    88 12.93  0.02
   1/19/2018 03:00    22     8    72    13    86 12.94  0.03
   1/19/2018 02:00    22     8    81    15    84 12.96  0.03
   1/19/2018 01:00    22     7    72    13    88 12.97  0.03
   1/18/2018 24:00    23     4    67    10    90 12.98  0.00
   1/18/2018 23:00    22     3   182     9    93 13.00  0.00
   1/18/2018 22:00    21     0   205     2    96 13.01  0.00
   1/18/2018 21:00    22     0     0     0    98 13.03  0.00
   1/18/2018 20:00    22     0   205     1    98 13.05  0.01
   1/18/2018 19:00    22     0   205     1   100 13.08  0.02
   1/18/2018 18:00    22     0   205     1    98 13.11  0.14
   1/18/2018 17:00    23     0   205     1    98 13.22  6.63


Click Here to View Graph!